createdAt,value
2023-03-18T00:00:10.170Z,93821.00
2023-03-18T00:02:38.916Z,93819.13
2023-03-18T00:05:07.621Z,93810.19
2023-03-18T00:07:36.322Z,93808.84
2023-03-18T00:10:05.077Z,93808.91
2023-03-18T00:12:33.244Z,93802.41
2023-03-18T00:15:01.150Z,93811.34
2023-03-18T00:17:28.154Z,93818.13
2023-03-18T00:19:55.325Z,93815.97
2023-03-18T00:22:22.846Z,93817.81
2023-03-18T00:24:49.531Z,93821.09
2023-03-18T00:27:16.585Z,93826.94
2023-03-18T00:29:43.960Z,93830.06
2023-03-18T00:32:11.079Z,93842.53
2023-03-18T00:34:37.852Z,93842.44
2023-03-18T00:37:05.196Z,93840.88
2023-03-18T00:39:33.206Z,93849.25
2023-03-18T00:42:08.199Z,93843.16
2023-03-18T00:44:34.952Z,93844.84
2023-03-18T00:47:01.863Z,93849.09
2023-03-18T00:49:28.772Z,93851.69
2023-03-18T00:51:55.508Z,93857.41
2023-03-18T00:54:22.600Z,93861.84
2023-03-18T00:56:49.746Z,93860.00
2023-03-18T00:59:16.905Z,93859.09
2023-03-18T01:01:43.693Z,93857.69
2023-03-18T01:04:10.424Z,93861.84
2023-03-18T01:06:38.691Z,93854.84
2023-03-18T01:09:07.057Z,93857.25
2023-03-18T01:11:34.021Z,93847.59
2023-03-18T01:14:01.205Z,93860.41
2023-03-18T01:16:28.405Z,93859.72
2023-03-18T01:18:55.219Z,93857.50
2023-03-18T01:21:22.632Z,93859.19
2023-03-18T01:23:49.467Z,93867.56
2023-03-18T01:26:16.912Z,93863.78
2023-03-18T01:28:43.744Z,93867.66
2023-03-18T01:31:10.439Z,93874.03
2023-03-18T01:33:37.196Z,93871.13
2023-03-18T01:36:05.333Z,93874.91
2023-03-18T01:38:32.305Z,93867.38
2023-03-18T01:41:00.356Z,93870.50
2023-03-18T01:43:34.233Z,93880.81
2023-03-18T01:46:02.896Z,93876.19
2023-03-18T01:48:33.270Z,93882.41
2023-03-18T01:51:05.461Z,93895.41
2023-03-18T01:53:39.212Z,93897.00
2023-03-18T01:56:07.020Z,93894.50
2023-03-18T01:58:37.960Z,93895.69
2023-03-18T02:01:14.325Z,93908.44
2023-03-18T02:03:43.035Z,93909.34
2023-03-18T02:06:10.250Z,93914.25
2023-03-18T02:08:39.036Z,93917.75
2023-03-18T02:11:07.671Z,93913.91
2023-03-18T02:13:40.131Z,93917.88
2023-03-18T02:16:19.817Z,93921.97
2023-03-18T02:18:51.272Z,93925.28
2023-03-18T02:21:27.826Z,93934.88
2023-03-18T02:24:03.492Z,93943.81
2023-03-18T02:26:45.441Z,93942.63
2023-03-18T02:29:14.764Z,93937.88
2023-03-18T02:31:42.651Z,93944.06
2023-03-18T02:34:09.976Z,93936.38
2023-03-18T02:36:36.934Z,93942.69
2023-03-18T02:39:04.852Z,93940.66
2023-03-18T02:41:34.515Z,93939.69
2023-03-18T02:44:01.811Z,93954.00
2023-03-18T02:46:54.241Z,93946.16
2023-03-18T02:49:22.704Z,93936.56
2023-03-18T02:51:50.088Z,93950.91
2023-03-18T02:54:20.560Z,93960.03
2023-03-18T02:56:47.815Z,93960.03
2023-03-18T02:59:15.301Z,93954.47
2023-03-18T03:01:44.394Z,93955.41
2023-03-18T03:04:12.400Z,93957.47
2023-03-18T03:06:39.787Z,93953.91
2023-03-18T03:09:08.357Z,93953.16
2023-03-18T03:11:35.488Z,93958.34
2023-03-18T03:14:02.456Z,93960.38
2023-03-18T03:16:29.653Z,93960.84
2023-03-18T03:18:56.336Z,93966.63
2023-03-18T03:21:23.364Z,93975.06
2023-03-18T03:23:52.386Z,93969.78
2023-03-18T03:26:19.483Z,93973.50
2023-03-18T03:28:46.870Z,93969.53
2023-03-18T03:31:14.263Z,93984.53
2023-03-18T03:33:41.837Z,93979.75
2023-03-18T03:36:14.802Z,93980.69
2023-03-18T03:38:41.845Z,93984.81
2023-03-18T03:41:10.546Z,93985.28
2023-03-18T03:43:40.688Z,93970.16
2023-03-18T03:46:09.583Z,93965.69
2023-03-18T03:48:37.087Z,93990.41
2023-03-18T03:51:04.506Z,93995.03
2023-03-18T03:53:31.322Z,93991.69
2023-03-18T03:55:59.237Z,93991.22
2023-03-18T03:58:26.804Z,93997.94
2023-03-18T04:00:53.485Z,94000.84
2023-03-18T04:03:20.344Z,93996.53
2023-03-18T04:05:47.811Z,93994.56
2023-03-18T04:08:14.637Z,93994.94
2023-03-18T04:10:41.507Z,93984.72
2023-03-18T04:13:08.997Z,93990.94
2023-03-18T04:15:36.010Z,94002.13
2023-03-18T04:18:07.055Z,94007.25
2023-03-18T04:20:35.766Z,94001.03
2023-03-18T04:23:02.828Z,94015.25
2023-03-18T04:25:30.213Z,94008.53
2023-03-18T04:27:57.734Z,94011.25
2023-03-18T04:30:25.728Z,94011.91
2023-03-18T04:32:53.184Z,94014.97
2023-03-18T04:35:21.222Z,94012.69
2023-03-18T04:37:48.809Z,94016.53
2023-03-18T04:40:15.845Z,94008.41
2023-03-18T04:42:43.231Z,94010.94
2023-03-18T04:45:10.439Z,94011.44
2023-03-18T04:47:38.265Z,94006.97
2023-03-18T04:50:05.773Z,94012.25
2023-03-18T04:52:32.492Z,94012.72
2023-03-18T04:54:59.219Z,94007.13
2023-03-18T04:57:26.163Z,94020.88
2023-03-18T04:59:52.963Z,94022.47
2023-03-18T05:02:20.040Z,94012.06
2023-03-18T05:04:46.901Z,94027.25
2023-03-18T05:07:15.493Z,94018.44
2023-03-18T05:09:42.674Z,94009.53
2023-03-18T05:12:14.973Z,94023.56
2023-03-18T05:14:45.439Z,94024.06
2023-03-18T05:17:17.953Z,94013.69
2023-03-18T05:19:46.558Z,94025.47
2023-03-18T05:22:15.412Z,94028.03
2023-03-18T05:24:43.344Z,94033.63
2023-03-18T05:27:10.840Z,94043.97
2023-03-18T05:29:38.595Z,94041.13
2023-03-18T05:32:07.138Z,94037.47
2023-03-18T05:34:35.840Z,94038.44
2023-03-18T05:37:03.035Z,94040.66
2023-03-18T05:39:29.731Z,94037.47
2023-03-18T05:41:56.734Z,94044.31
2023-03-18T05:44:23.787Z,94045.22
2023-03-18T05:46:52.317Z,94039.22
2023-03-18T05:49:19.819Z,94044.78
2023-03-18T05:51:46.799Z,94048.91
2023-03-18T05:54:14.204Z,94049.59
2023-03-18T05:56:43.296Z,94046.44
2023-03-18T05:59:10.212Z,94053.50
2023-03-18T06:01:37.744Z,94060.00
2023-03-18T06:04:06.308Z,94061.22
2023-03-18T06:06:33.901Z,94078.03
2023-03-18T06:09:01.070Z,94075.72
2023-03-18T06:11:29.504Z,94084.41
2023-03-18T06:13:56.854Z,94076.88
2023-03-18T06:16:23.729Z,94081.75
2023-03-18T06:18:50.830Z,94068.84
2023-03-18T06:21:17.870Z,94079.56
2023-03-18T06:23:45.161Z,94079.31
2023-03-18T06:26:11.740Z,94072.03
2023-03-18T06:28:39.174Z,94072.91
2023-03-18T06:31:05.974Z,94069.41
2023-03-18T06:33:33.024Z,94075.47
2023-03-18T06:36:01.433Z,94073.06
2023-03-18T06:38:28.940Z,94073.59
2023-03-18T06:40:56.825Z,94076.53
2023-03-18T06:43:23.606Z,94073.34
2023-03-18T06:45:50.831Z,94087.66
2023-03-18T06:48:18.046Z,94080.31
2023-03-18T06:50:45.087Z,94084.22
2023-03-18T06:53:12.759Z,94081.91
2023-03-18T06:55:39.700Z,94083.66
2023-03-18T06:58:06.421Z,94089.47
2023-03-18T07:00:34.219Z,94084.84
2023-03-18T07:03:01.621Z,94084.16
2023-03-18T07:05:28.901Z,94084.81
2023-03-18T07:07:55.763Z,94090.13
2023-03-18T07:10:27.503Z,94083.50
2023-03-18T07:12:54.415Z,94083.22
2023-03-18T07:15:22.706Z,94082.28
2023-03-18T07:17:50.314Z,94066.94
2023-03-18T07:20:17.458Z,94086.97
2023-03-18T07:22:45.386Z,94071.50
2023-03-18T07:25:12.464Z,94068.41
2023-03-18T07:27:40.133Z,94086.19
2023-03-18T07:30:09.656Z,94073.41
2023-03-18T07:32:37.489Z,94080.66
2023-03-18T07:35:05.675Z,94067.88
2023-03-18T07:37:33.553Z,94060.69
2023-03-18T07:40:00.197Z,94072.69
2023-03-18T07:42:26.968Z,94073.03
2023-03-18T07:44:53.712Z,94080.34
2023-03-18T07:47:21.049Z,94067.72
2023-03-18T07:49:47.873Z,94072.38
2023-03-18T07:52:15.060Z,94077.56
2023-03-18T07:54:41.714Z,94072.97
2023-03-18T07:57:08.634Z,94071.41
2023-03-18T07:59:35.619Z,94060.63
2023-03-18T08:02:02.963Z,94067.06
2023-03-18T08:04:30.113Z,94070.44
2023-03-18T08:06:58.022Z,94063.66
2023-03-18T08:09:25.131Z,94066.75
2023-03-18T08:11:51.829Z,94065.84
2023-03-18T08:14:18.631Z,94060.78
2023-03-18T08:16:45.423Z,94051.44
2023-03-18T08:19:12.393Z,94046.94
2023-03-18T08:21:39.691Z,94051.31
2023-03-18T08:24:06.901Z,94039.75
2023-03-18T08:26:33.651Z,94041.66
2023-03-18T08:29:00.434Z,94045.38
2023-03-18T08:31:27.207Z,94045.78
2023-03-18T08:33:56.862Z,94039.41
2023-03-18T08:36:24.010Z,94039.63
2023-03-18T08:38:50.935Z,94034.59
2023-03-18T08:41:17.692Z,94024.25
2023-03-18T08:43:45.226Z,94023.84
2023-03-18T08:46:12.063Z,94022.34
2023-03-18T08:48:38.796Z,94017.66
2023-03-18T08:51:09.405Z,94009.13
2023-03-18T08:53:36.735Z,94014.22
2023-03-18T08:56:05.963Z,94007.88
2023-03-18T08:58:32.801Z,94005.22
2023-03-18T09:00:59.817Z,94008.66
2023-03-18T09:03:26.650Z,94004.09
2023-03-18T09:05:53.944Z,93993.72
2023-03-18T09:08:22.074Z,94000.19
2023-03-18T09:10:52.377Z,94008.63
2023-03-18T09:13:19.527Z,93992.03
2023-03-18T09:15:46.466Z,93997.66
2023-03-18T09:18:16.557Z,93999.75
2023-03-18T09:20:43.403Z,93991.69
2023-03-18T09:23:10.340Z,93988.97
2023-03-18T09:25:37.145Z,93989.44
2023-03-18T09:28:03.955Z,93997.50
2023-03-18T09:30:30.750Z,93980.44
2023-03-18T09:32:58.084Z,93980.59
2023-03-18T09:35:24.891Z,93985.50
2023-03-18T09:37:52.193Z,93974.06
2023-03-18T09:40:25.248Z,93974.13
2023-03-18T09:43:13.932Z,93975.41
2023-03-18T09:46:00.640Z,93967.22
2023-03-18T09:48:55.403Z,93963.00
2023-03-18T09:51:59.377Z,93957.13
2023-03-18T09:54:41.808Z,93958.19
2023-03-18T09:57:17.192Z,93955.50
2023-03-18T09:59:58.727Z,93943.81
2023-03-18T10:02:41.444Z,93939.53
2023-03-18T10:05:18.233Z,93952.09
2023-03-18T10:07:47.791Z,93944.75
2023-03-18T10:10:31.116Z,93939.97
2023-03-18T10:13:13.402Z,93940.28
2023-03-18T10:15:43.378Z,93938.28
2023-03-18T10:18:13.333Z,93932.34
2023-03-18T10:21:04.807Z,93911.06
2023-03-18T10:23:52.833Z,93926.69
2023-03-18T10:26:46.270Z,93927.00
2023-03-18T10:29:40.829Z,93913.06
2023-03-18T10:32:46.341Z,93912.94
2023-03-18T10:35:19.703Z,93906.84
2023-03-18T10:38:26.663Z,93910.53
2023-03-18T10:40:53.772Z,93903.69
2023-03-18T10:43:25.257Z,93909.19
2023-03-18T10:46:01.108Z,93900.06
2023-03-18T10:48:33.882Z,93893.75
2023-03-18T10:51:12.136Z,93894.56
2023-03-18T10:53:51.197Z,93887.22
2023-03-18T10:56:18.028Z,93883.59
2023-03-18T10:58:46.286Z,93878.44
2023-03-18T11:01:17.399Z,93876.16
2023-03-18T11:03:54.582Z,93874.06
2023-03-18T11:06:47.698Z,93879.59
2023-03-18T11:09:20.146Z,93869.66
2023-03-18T11:11:51.016Z,93872.03
2023-03-18T11:14:22.985Z,93867.03
2023-03-18T11:16:57.973Z,93861.72
2023-03-18T11:19:42.707Z,93865.84
2023-03-18T11:22:10.261Z,93853.19
2023-03-18T11:24:45.040Z,93851.44
2023-03-18T11:27:14.493Z,93851.94
2023-03-18T11:29:46.620Z,93846.78
2023-03-18T11:32:28.898Z,93844.13
2023-03-18T11:35:06.629Z,93840.94
2023-03-18T11:37:38.624Z,93833.97
2023-03-18T11:40:14.164Z,93836.69
2023-03-18T11:42:42.250Z,93825.34
2023-03-18T11:45:29.803Z,93819.00
2023-03-18T11:47:57.509Z,93805.88
2023-03-18T11:50:26.334Z,93808.66
2023-03-18T11:53:08.744Z,93807.47
2023-03-18T11:55:39.563Z,93805.59
2023-03-18T11:58:31.518Z,93792.66
2023-03-18T12:01:13.828Z,93797.03
2023-03-18T12:04:11.050Z,93787.38
2023-03-18T12:07:13.192Z,93779.63
2023-03-18T12:09:47.368Z,93763.56
2023-03-18T12:12:24.404Z,93777.03
2023-03-18T12:15:02.140Z,93762.72
2023-03-18T12:18:01.028Z,93778.09
2023-03-18T12:20:40.476Z,93764.69
2023-03-18T12:23:38.236Z,93763.22
2023-03-18T12:26:31.503Z,93760.47
2023-03-18T12:29:28.300Z,93762.28
2023-03-18T12:32:09.131Z,93754.28
2023-03-18T12:34:49.308Z,93746.34
2023-03-18T12:37:47.109Z,93746.66
2023-03-18T12:40:35.276Z,93743.16
2023-03-18T12:43:34.228Z,93733.25
2023-03-18T12:46:11.678Z,93734.31
2023-03-18T12:48:47.009Z,93730.38
2023-03-18T12:51:17.259Z,93729.94
2023-03-18T12:53:53.838Z,93731.75
2023-03-18T12:56:23.749Z,93724.03
2023-03-18T12:59:17.239Z,93719.44
2023-03-18T13:01:56.088Z,93716.31
2023-03-18T13:04:24.906Z,93721.78
2023-03-18T13:07:02.114Z,93717.56
2023-03-18T13:09:39.752Z,93718.28
2023-03-18T13:12:29.707Z,93717.31
2023-03-18T13:15:07.790Z,93719.78
2023-03-18T13:17:48.163Z,93715.75
2023-03-18T13:20:33.874Z,93708.34
2023-03-18T13:23:14.016Z,93711.22
2023-03-18T13:25:48.910Z,93716.50
2023-03-18T13:28:47.791Z,93702.88
2023-03-18T13:31:33.499Z,93705.44
2023-03-18T13:34:06.331Z,93707.16
2023-03-18T13:36:44.969Z,93702.25
2023-03-18T13:39:19.919Z,93705.16
2023-03-18T13:41:58.632Z,93699.69
2023-03-18T13:44:39.851Z,93697.34
2023-03-18T13:47:08.319Z,93685.19
2023-03-18T13:49:39.249Z,93690.28
2023-03-18T13:52:22.711Z,93692.94
2023-03-18T13:54:50.218Z,93688.81
2023-03-18T13:57:27.182Z,93691.81
2023-03-18T14:00:30.650Z,93683.41
2023-03-18T14:03:14.498Z,93681.78
2023-03-18T14:05:42.708Z,93683.56
2023-03-18T14:08:31.801Z,93670.16
2023-03-18T14:11:26.176Z,93678.91
2023-03-18T14:14:05.788Z,93675.44
2023-03-18T14:16:53.062Z,93674.16
2023-03-18T14:19:24.308Z,93663.44
2023-03-18T14:22:28.471Z,93669.28
2023-03-18T14:25:13.422Z,93674.81
2023-03-18T14:27:52.669Z,93668.50
2023-03-18T14:30:34.886Z,93662.28
2023-03-18T14:33:04.113Z,93652.31
2023-03-18T14:35:36.646Z,93650.38
2023-03-18T14:38:11.624Z,93654.81
2023-03-18T14:40:41.994Z,93640.72
2023-03-18T14:43:14.234Z,93643.03
2023-03-18T14:45:49.458Z,93632.69
2023-03-18T14:48:35.480Z,93636.38
2023-03-18T14:51:14.776Z,93639.25
2023-03-18T14:53:48.643Z,93630.03
2023-03-18T14:56:19.913Z,93626.97
2023-03-18T14:58:47.693Z,93626.53
2023-03-18T15:01:17.855Z,93627.84
2023-03-18T15:03:47.528Z,93635.66
2023-03-18T15:06:20.394Z,93622.72
2023-03-18T15:09:09.780Z,93622.09
2023-03-18T15:11:41.568Z,93621.63
2023-03-18T15:14:31.757Z,93612.00
2023-03-18T15:17:14.042Z,93616.03
2023-03-18T15:19:41.214Z,93623.81
2023-03-18T15:22:08.804Z,93612.91
2023-03-18T15:24:35.789Z,93611.28
2023-03-18T15:27:07.817Z,93621.13
2023-03-18T15:29:52.977Z,93619.56
2023-03-18T15:32:31.702Z,93624.31
2023-03-18T15:35:26.777Z,93624.47
2023-03-18T15:38:26.916Z,93634.84
2023-03-18T15:41:12.398Z,93627.91
2023-03-18T15:43:47.149Z,93627.75
2023-03-18T15:46:27.735Z,93633.13
2023-03-18T15:48:56.027Z,93634.47
2023-03-18T15:51:40.382Z,93630.09
2023-03-18T15:54:16.456Z,93637.63
2023-03-18T15:56:48.821Z,93642.69
2023-03-18T15:59:26.145Z,93642.00
2023-03-18T16:01:56.505Z,93650.22
2023-03-18T16:04:24.461Z,93641.34
2023-03-18T16:06:52.641Z,93645.59
2023-03-18T16:09:24.935Z,93654.47
2023-03-18T16:11:54.614Z,93657.31
2023-03-18T16:14:24.370Z,93663.38
2023-03-18T16:16:51.644Z,93666.16
2023-03-18T16:19:28.410Z,93672.00
2023-03-18T16:21:57.003Z,93670.44
2023-03-18T16:24:24.523Z,93678.78
2023-03-18T16:26:55.231Z,93683.19
2023-03-18T16:29:33.262Z,93686.34
2023-03-18T16:32:00.857Z,93686.59
2023-03-18T16:34:28.082Z,93692.72
2023-03-18T16:36:55.398Z,93690.47
2023-03-18T16:39:27.487Z,93694.88
2023-03-18T16:41:54.875Z,93696.44
2023-03-18T16:44:23.546Z,93704.44
2023-03-18T16:46:53.868Z,93705.72
2023-03-18T16:49:23.362Z,93711.13
2023-03-18T16:51:50.653Z,93720.78
2023-03-18T16:54:27.659Z,93722.47
2023-03-18T16:56:57.510Z,93716.44
2023-03-18T16:59:27.944Z,93721.91
2023-03-18T17:01:54.695Z,93730.59
2023-03-18T17:04:31.352Z,93724.88
2023-03-18T17:06:59.853Z,93734.16
2023-03-18T17:09:27.029Z,93734.78
2023-03-18T17:11:58.550Z,93740.38
2023-03-18T17:14:25.291Z,93751.66
2023-03-18T17:16:52.190Z,93745.06
2023-03-18T17:19:22.992Z,93747.34
2023-03-18T17:21:50.091Z,93748.97
2023-03-18T17:24:16.857Z,93753.06
2023-03-18T17:26:44.332Z,93761.75
2023-03-18T17:29:28.237Z,93756.69
2023-03-18T17:31:55.840Z,93766.63
2023-03-18T17:34:24.107Z,93765.41
2023-03-18T17:36:51.588Z,93757.91
2023-03-18T17:39:18.236Z,93764.09
2023-03-18T17:41:44.985Z,93766.25
2023-03-18T17:44:31.913Z,93765.31
2023-03-18T17:46:58.697Z,93772.50
2023-03-18T17:49:27.081Z,93774.28
2023-03-18T17:51:54.875Z,93780.84
2023-03-18T17:54:25.316Z,93761.25
2023-03-18T17:56:53.067Z,93787.19
2023-03-18T17:59:20.592Z,93790.41
2023-03-18T18:01:48.809Z,93792.84
2023-03-18T18:04:20.733Z,93787.06
2023-03-18T18:06:49.258Z,93799.22
2023-03-18T18:09:16.724Z,93797.53
2023-03-18T18:11:46.539Z,93798.63
2023-03-18T18:14:25.097Z,93811.63
2023-03-18T18:16:53.825Z,93814.09
2023-03-18T18:19:20.669Z,93818.72
2023-03-18T18:21:49.198Z,93816.69
2023-03-18T18:24:23.212Z,93821.94
2023-03-18T18:26:50.440Z,93834.22
2023-03-18T18:29:20.719Z,93838.41
2023-03-18T18:31:48.043Z,93832.75
2023-03-18T18:34:15.704Z,93828.13
2023-03-18T18:36:43.186Z,93826.56
2023-03-18T18:39:10.073Z,93824.06
2023-03-18T18:41:36.991Z,93824.84
2023-03-18T18:44:03.705Z,93829.47
2023-03-18T18:46:31.023Z,93829.44
2023-03-18T18:48:57.926Z,93840.47
2023-03-18T18:51:25.411Z,93842.16
2023-03-18T18:53:53.816Z,93847.69
2023-03-18T18:56:36.601Z,93851.78
2023-03-18T18:59:23.124Z,93849.81
2023-03-18T19:01:50.914Z,93854.56
2023-03-18T19:04:17.943Z,93854.09
2023-03-18T19:06:45.770Z,93850.44
2023-03-18T19:09:18.924Z,93851.16
2023-03-18T19:11:46.800Z,93858.53
2023-03-18T19:14:25.431Z,93863.38
2023-03-18T19:16:53.812Z,93859.34
2023-03-18T19:19:25.098Z,93864.47
2023-03-18T19:21:52.053Z,93861.47
2023-03-18T19:24:37.149Z,93867.50
2023-03-18T19:27:06.272Z,93849.88
2023-03-18T19:29:33.140Z,93847.50
2023-03-18T19:32:01.595Z,93857.09
2023-03-18T19:34:29.859Z,93859.09
2023-03-18T19:36:56.969Z,93859.59
2023-03-18T19:39:25.072Z,93856.50
2023-03-18T19:41:52.146Z,93871.81
2023-03-18T19:44:21.155Z,93865.34
2023-03-18T19:46:49.333Z,93860.63
2023-03-18T19:49:21.845Z,93861.25
2023-03-18T19:51:50.125Z,93868.88
2023-03-18T19:54:36.798Z,93861.84
2023-03-18T19:57:06.816Z,93868.38
2023-03-18T19:59:39.169Z,93870.97
2023-03-18T20:02:25.944Z,93877.72
2023-03-18T20:04:54.602Z,93867.47
2023-03-18T20:07:23.173Z,93881.28
2023-03-18T20:09:50.372Z,93891.63
2023-03-18T20:12:26.183Z,93896.88
2023-03-18T20:14:52.847Z,93901.25
2023-03-18T20:17:42.136Z,93901.91
2023-03-18T20:20:23.011Z,93898.28
2023-03-18T20:22:53.040Z,93906.13
2023-03-18T20:25:36.695Z,93901.25
2023-03-18T20:28:04.735Z,93906.09
2023-03-18T20:30:36.271Z,93904.47
2023-03-18T20:33:06.672Z,93914.06
2023-03-18T20:35:36.210Z,93910.44
2023-03-18T20:38:14.393Z,93908.44
2023-03-18T20:40:42.560Z,93904.84
2023-03-18T20:43:15.161Z,93906.25
2023-03-18T20:45:42.045Z,93910.34
2023-03-18T20:48:09.726Z,93904.19
2023-03-18T20:50:37.076Z,93905.97
2023-03-18T20:53:05.077Z,93927.31
2023-03-18T20:55:33.156Z,93925.34
2023-03-18T20:58:00.804Z,93921.34
2023-03-18T21:00:33.180Z,93924.06
2023-03-18T21:03:02.076Z,93924.84
2023-03-18T21:05:28.784Z,93929.38
2023-03-18T21:07:55.967Z,93927.84
2023-03-18T21:10:24.839Z,93924.53
2023-03-18T21:12:52.126Z,93926.28
2023-03-18T21:15:24.819Z,93932.88
2023-03-18T21:17:51.883Z,93937.25
2023-03-18T21:20:29.145Z,93941.44
2023-03-18T21:22:57.146Z,93936.28
2023-03-18T21:25:26.462Z,93938.09
2023-03-18T21:27:53.820Z,93939.94
2023-03-18T21:30:22.222Z,93937.78
2023-03-18T21:32:50.652Z,93937.38
2023-03-18T21:35:25.729Z,93942.16
2023-03-18T21:37:53.097Z,93939.34
2023-03-18T21:40:22.484Z,93936.97
2023-03-18T21:42:50.121Z,93931.00
2023-03-18T21:45:19.357Z,93928.25
2023-03-18T21:47:46.172Z,93938.56
2023-03-18T21:50:24.186Z,93935.00
2023-03-18T21:52:51.486Z,93934.19
2023-03-18T21:55:18.304Z,93937.00
2023-03-18T21:57:47.592Z,93939.75
2023-03-18T22:00:17.605Z,93938.19
2023-03-18T22:02:44.209Z,93934.78
2023-03-18T22:05:21.842Z,93937.34
2023-03-18T22:07:50.460Z,93926.47
2023-03-18T22:10:19.918Z,93934.34
2023-03-18T22:12:46.556Z,93937.31
2023-03-18T22:15:35.967Z,93931.94
2023-03-18T22:18:03.169Z,93933.50
2023-03-18T22:20:29.849Z,93929.94
2023-03-18T22:22:56.803Z,93933.91
2023-03-18T22:25:29.904Z,93932.31
2023-03-18T22:27:59.925Z,93940.06
2023-03-18T22:30:28.447Z,93938.50
2023-03-18T22:32:56.244Z,93938.41
2023-03-18T22:35:25.564Z,93945.13
2023-03-18T22:37:52.456Z,93929.81
2023-03-18T22:40:21.904Z,93945.31
2023-03-18T22:42:51.273Z,93943.53
2023-03-18T22:45:29.684Z,93942.28
2023-03-18T22:47:58.180Z,93947.06
2023-03-18T22:50:27.330Z,93950.06
2023-03-18T22:53:00.370Z,93951.41
2023-03-18T22:55:29.881Z,93942.66
2023-03-18T22:57:56.519Z,93960.03
2023-03-18T23:00:25.926Z,93959.84
2023-03-18T23:02:54.197Z,93967.19
2023-03-18T23:05:22.144Z,93958.72
2023-03-18T23:07:48.917Z,93967.44
2023-03-18T23:10:16.423Z,93961.72
2023-03-18T23:12:43.568Z,93963.88
2023-03-18T23:15:16.210Z,93968.13
2023-03-18T23:17:43.767Z,93969.72
2023-03-18T23:20:11.214Z,93964.75
2023-03-18T23:22:37.819Z,93962.72
2023-03-18T23:25:04.975Z,93961.88
2023-03-18T23:27:31.548Z,93964.09
2023-03-18T23:29:58.137Z,93965.84
2023-03-18T23:32:25.296Z,93958.78
2023-03-18T23:34:52.386Z,93968.50
2023-03-18T23:37:19.241Z,93967.44
2023-03-18T23:39:48.807Z,93976.50
2023-03-18T23:42:17.278Z,93970.97
2023-03-18T23:44:44.184Z,93966.03
2023-03-18T23:47:11.862Z,93965.28
2023-03-18T23:49:38.788Z,93966.50
2023-03-18T23:52:15.832Z,93966.31
2023-03-18T23:54:42.761Z,93967.03
2023-03-18T23:57:10.788Z,93960.38
2023-03-18T23:59:38.011Z,93961.78
